Time;durP1;ratioP1;P1;durP2;ratioP2;P2;SDS_P1;SDS_P2;PMS_P1;PMS_P2;Temp;Humidity;BMP_temperature;BMP_pressure;BME280_temperature;BME280_humidity;BME280_pressure;Samples;Min_cycle;Max_cycle;Signal;HPM_P1;HPM_P2
2023/12/24 10:57:58;;;;;;;;;;;;;;;10.01;78.57;99424.78;1079983;54;2044;-80
2023/12/24 10:59:08;;;;;;;;;;;;;;;10.14;77.88;99430.53;1088459;54;1317;-81
2023/12/24 11:00:16;;;;;;;;;;;;;;;10.26;77.57;99426.59;1087995;47;1121;-80
2023/12/24 11:01:17;;;;;;;;;;;;;;;10.22;77.38;99417.25;1088461;54;985;-79
2023/12/24 11:02:21;;;;;;;;;;;;;;;10.21;77.27;99420.03;1087428;47;1066;-79
2023/12/24 11:03:36;;;;;;;;;;;;;;;10.28;76.93;99427.28;1087419;54;1239;-79
2023/12/24 11:04:47;;;;;;;;;;;;;;;10.35;76.72;99421.28;1088046;54;1157;-79
2023/12/24 11:05:48;;;;;;;;;;;;;;;10.55;75.90;99424.63;1088207;54;993;-80
2023/12/24 11:06:51;;;;;;;;;;;;;;;10.53;75.63;99421.25;1086856;54;1071;-80
2023/12/24 11:07:52;;;;;;;;;;;;;;;10.48;75.89;99416.41;1087106;54;1194;-80
2023/12/24 11:08:55;;;;;;;;;;;;;;;10.50;75.54;99413.56;1087106;46;1346;-80
2023/12/24 11:09:56;;;;;;;;;;;;;;;10.52;75.58;99425.78;1086987;54;1640;-79
2023/12/24 11:10:57;;;;;;;;;;;;;;;10.47;75.04;99425.41;1088059;54;1453;-79
2023/12/24 11:12:01;;;;;;;;;;;;;;;10.49;75.12;99420.75;1087958;54;1844;-79
2023/12/24 11:13:02;;;;;;;;;;;;;;;10.48;74.94;99418.25;1088192;46;1174;-79
2023/12/24 11:14:34;;;;;;;;;;;;;;;10.60;74.65;99414.28;1088194;47;1114;-80
2023/12/24 11:16:05;;;;;;;;;;;;;;;10.79;74.13;99423.88;1087671;47;999;-80
2023/12/24 11:17:13;;;;;;;;;;;;;;;10.80;73.91;99414.88;1087861;54;1099;-79
2023/12/24 11:18:48;;;;;;;;;;;;;;;;;;;;;
2023/12/24 11:19:53;;;;;;;;;;;;;;;10.69;74.18;99407.97;1088317;54;988;-79
2023/12/24 11:20:58;;;;;;;;;;;;;;;10.61;74.06;99419.47;1088120;47;1086;-78
2023/12/24 11:22:09;;;;;;;;;;;;;;;10.70;74.00;99409.63;1088081;54;1178;-79
2023/12/24 11:23:14;;;;;;;;;;;;;;;10.91;72.91;99411.88;1087934;54;886;-78
2023/12/24 11:24:24;;;;;;;;;;;;;;;10.75;73.17;99411.81;1088214;54;945;-79
2023/12/24 11:25:34;;;;;;;;;;;;;;;10.84;72.98;99410.84;1088058;47;1187;-79
2023/12/24 11:26:38;;;;;;;;;;;;;;;10.81;72.96;99410.34;1088252;54;1149;-79
2023/12/24 11:27:51;;;;;;;;;;;;;;;10.90;72.70;99420.06;1088261;54;905;-79
2023/12/24 11:28:55;;;;;;;;;;;;;;;11.13;72.31;99412.28;1088004;54;1395;-80
2023/12/24 11:30:01;;;;;;;;;;;;;;;11.14;72.24;99413.94;1087869;54;1043;-80
2023/12/24 11:31:03;;;;;;;;;;;;;;;10.88;72.70;99412.22;1087087;54;1047;-80
2023/12/24 11:32:23;;;;;;;;;;;;;;;10.90;72.50;99414.72;1087340;47;1843;-79
2023/12/24 11:33:42;;;;;;;;;;;;;;;10.94;72.33;99416.09;1087584;54;1043;-79
2023/12/24 11:34:46;;;;;;;;;;;;;;;11.20;71.76;99420.50;1087097;54;1004;-80
2023/12/24 11:35:53;;;;;;;;;;;;;;;11.00;71.81;99418.09;1086520;47;1090;-79
2023/12/24 11:37:04;;;;;;;;;;;;;;;10.95;71.92;99416.91;1086718;54;1091;-80
2023/12/24 11:38:19;;;;;;;;;;;;;;;11.07;71.71;99405.75;1087219;46;1135;-79
2023/12/24 11:39:53;;;;;;;;;;;;;;;11.01;71.70;99427.81;1087611;47;1213;-80
2023/12/24 11:41:03;;;;;;;;;;;;;;;10.91;71.76;99421.75;1087055;47;1182;-79
2023/12/24 11:42:07;;;;;;;;;;;;;;;11.06;71.57;99414.75;1087407;54;947;-78
2023/12/24 11:43:08;;;;;;;;;;;;;;;10.87;71.45;99407.00;1086797;54;1165;-79
2023/12/24 11:44:12;;;;;;;;;;;;;;;10.84;71.72;99407.34;1086402;47;1173;-80
2023/12/24 11:45:23;;;;;;;;;;;;;;;10.92;71.58;99399.34;1085422;47;1049;-79
2023/12/24 11:46:28;;;;;;;;;;;;;;;10.88;71.77;99406.00;1086173;47;1087;-79
2023/12/24 11:47:29;;;;;;;;;;;;;;;10.97;71.40;99393.53;1087405;47;1100;-80
2023/12/24 11:48:31;;;;;;;;;;;;;;;10.91;71.63;99395.81;1087057;47;1424;-80
2023/12/24 11:49:34;;;;;;;;;;;;;;;10.90;71.73;99402.22;1088069;47;1010;-78
2023/12/24 11:50:35;;;;;;;;;;;;;;;10.92;71.61;99397.50;1088101;47;961;-81
2023/12/24 11:51:38;;;;;;;;;;;;;;;10.86;71.49;99397.34;1087030;47;1857;-79
2023/12/24 11:52:42;;;;;;;;;;;;;;;11.06;71.25;99398.72;1086372;54;953;-80
2023/12/24 11:53:45;;;;;;;;;;;;;;;11.06;70.96;99403.25;1086615;47;1240;-80
2023/12/24 11:54:48;;;;;;;;;;;;;;;10.99;71.29;99395.03;1086964;47;1087;-79
2023/12/24 11:56:02;;;;;;;;;;;;;;;11.01;71.16;99386.81;1087468;47;1072;-79
2023/12/24 11:57:05;;;;;;;;;;;;;;;10.99;71.14;99381.66;1087093;47;1062;-79
2023/12/24 11:58:06;;;;;;;;;;;;;;;10.96;71.23;99384.66;1087045;47;1031;-79
2023/12/24 11:59:09;;;;;;;;;;;;;;;11.23;70.27;99390.75;1087331;47;1312;-78
2023/12/24 12:00:14;;;;;;;;;;;;;;;11.30;70.44;99393.56;1087412;47;1012;-80
2023/12/24 12:01:23;;;;;;;;;;;;;;;11.30;70.27;99388.22;1087444;47;971;-80
2023/12/24 12:02:25;;;;;;;;;;;;;;;11.16;70.65;99397.72;1086855;54;1071;-80
2023/12/24 12:03:28;;;;;;;;;;;;;;;11.00;71.29;99388.69;1087042;47;1346;-80
2023/12/24 12:04:29;;;;;;;;;;;;;;;11.02;71.18;99392.03;1087208;47;1166;-79
2023/12/24 12:05:33;;;;;;;;;;;;;;;11.11;70.89;99395.53;1087037;54;1115;-79
2023/12/24 12:06:35;;;;;;;;;;;;;;;11.41;70.12;99392.44;1086700;54;1113;-79
2023/12/24 12:07:38;;;;;;;;;;;;;;;11.24;70.57;99395.91;1087231;47;987;-79
2023/12/24 12:08:39;;;;;;;;;;;;;;;11.06;70.90;99398.72;1087367;47;1573;-80
2023/12/24 12:09:47;;;;;;;;;;;;;;;11.21;70.75;99390.88;1087840;46;1147;-79
2023/12/24 12:10:48;;;;;;;;;;;;;;;11.05;70.91;99391.69;1087787;54;1013;-79
2023/12/24 12:11:52;;;;;;;;;;;;;;;11.11;71.19;99394.72;1087871;54;1874;-79
2023/12/24 12:12:53;;;;;;;;;;;;;;;11.06;70.87;99392.53;1087925;54;1094;-80
2023/12/24 12:13:58;;;;;;;;;;;;;;;10.99;71.25;99381.66;1087970;54;955;-79
2023/12/24 12:14:59;;;;;;;;;;;;;;;10.98;71.51;99376.47;1087936;54;1047;-80
2023/12/24 12:16:01;;;;;;;;;;;;;;;10.96;71.40;99386.50;1088028;47;914;-80
2023/12/24 12:17:07;;;;;;;;;;;;;;;11.00;71.23;99402.06;1087879;54;982;-79
2023/12/24 12:18:08;;;;;;;;;;;;;;;11.13;70.77;99382.03;1087693;47;1226;-79
2023/12/24 12:19:12;;;;;;;;;;;;;;;10.99;71.08;99381.66;1087920;54;1331;-80
2023/12/24 12:20:13;;;;;;;;;;;;;;;10.95;71.45;99383.00;1088155;47;964;-80
2023/12/24 12:21:16;;;;;;;;;;;;;;;10.95;71.58;99385.66;1087724;47;1070;-80
2023/12/24 12:22:17;;;;;;;;;;;;;;;10.89;71.43;99370.25;1087652;54;1498;-80
2023/12/24 12:23:20;;;;;;;;;;;;;;;10.99;71.32;99384.31;1087172;47;1043;-81
2023/12/24 12:24:24;;;;;;;;;;;;;;;11.20;70.49;99375.00;1087086;47;1094;-81
2023/12/24 12:25:28;;;;;;;;;;;;;;;11.12;70.92;99396.41;1087200;47;1059;-80
2023/12/24 12:26:29;;;;;;;;;;;;;;;11.16;70.93;99392.38;1087640;54;1105;-80
2023/12/24 12:27:33;;;;;;;;;;;;;;;11.11;71.09;99374.16;1087678;47;925;-79
2023/12/24 12:28:35;;;;;;;;;;;;;;;11.12;71.08;99391.03;1087693;47;1221;-79
2023/12/24 12:29:36;;;;;;;;;;;;;;;11.11;71.22;99376.00;1087915;54;983;-79
2023/12/24 12:30:39;;;;;;;;;;;;;;;11.05;71.26;99391.69;1087419;47;1131;-80
2023/12/24 12:31:39;;;;;;;;;;;;;;;11.10;71.10;99377.81;1087567;54;947;-80
2023/12/24 12:32:45;;;;;;;;;;;;;;;11.10;71.28;99387.69;1087597;54;1860;-80
2023/12/24 12:33:47;;;;;;;;;;;;;;;11.18;71.10;99391.22;1087704;54;987;-80
2023/12/24 12:34:50;;;;;;;;;;;;;;;11.02;71.74;99396.53;1087644;54;936;-80
2023/12/24 12:35:52;;;;;;;;;;;;;;;11.12;71.58;99396.41;1087525;47;918;-79
2023/12/24 12:36:55;;;;;;;;;;;;;;;11.19;71.02;99392.06;1087676;54;880;-80
2023/12/24 12:37:56;;;;;;;;;;;;;;;11.36;70.81;99388.41;1087188;47;923;-81
2023/12/24 12:39:01;;;;;;;;;;;;;;;11.27;70.82;99404.63;1087394;47;1364;-80
2023/12/24 12:40:03;;;;;;;;;;;;;;;11.13;71.52;99408.78;1087539;54;1107;-81
2023/12/24 12:41:07;;;;;;;;;;;;;;;11.09;71.39;99410.94;1087625;54;1079;-80
2023/12/24 12:42:08;;;;;;;;;;;;;;;11.19;71.14;99398.22;1087524;54;1072;-80
2023/12/24 12:43:08;;;;;;;;;;;;;;;11.26;71.05;99398.41;1088009;54;1131;-79
2023/12/24 12:44:12;;;;;;;;;;;;;;;11.20;71.42;99399.09;1087934;47;979;-80
2023/12/24 12:45:13;;;;;;;;;;;;;;;11.34;70.95;99394.91;1088057;54;941;-79
2023/12/24 12:46:16;;;;;;;;;;;;;;;11.33;70.61;99404.81;1087776;54;990;-80
2023/12/24 12:47:17;;;;;;;;;;;;;;;11.16;71.05;99408.44;1088003;54;1033;-80
2023/12/24 12:48:23;;;;;;;;;;;;;;;11.10;70.80;99403.75;1087970;47;956;-80
2023/12/24 12:49:24;;;;;;;;;;;;;;;11.06;71.00;99400.56;1087943;54;1114;-80
2023/12/24 12:50:27;;;;;;;;;;;;;;;11.25;70.41;99407.44;1087816;47;1166;-80
2023/12/24 12:51:28;;;;;;;;;;;;;;;11.11;71.13;99400.91;1087792;54;1103;-79
2023/12/24 12:52:28;;;;;;;;;;;;;;;11.11;70.80;99402.75;1087956;54;1842;-80
2023/12/24 12:53:31;;;;;;;;;;;;;;;11.06;70.83;99404.06;1087996;54;1106;-80
2023/12/24 12:54:33;;;;;;;;;;;;;;;11.10;70.78;99393.03;1088003;54;1118;-80
2023/12/24 12:55:38;;;;;;;;;;;;;;;11.22;70.86;99397.91;1088127;54;1003;-80
2023/12/24 12:56:42;;;;;;;;;;;;;;;11.25;70.60;99399.41;1088199;54;959;-79
2023/12/24 12:57:45;;;;;;;;;;;;;;;11.20;70.54;99396.41;1088402;54;997;-79
2023/12/24 12:58:53;;;;;;;;;;;;;;;11.25;70.44;99383.34;1087730;54;1340;-79
2023/12/24 13:00:03;;;;;;;;;;;;;;;11.15;70.45;99385.34;1088040;47;1029;-80
2023/12/24 13:01:04;;;;;;;;;;;;;;;10.99;71.08;99378.97;1087929;54;1071;-79
2023/12/24 13:02:09;;;;;;;;;;;;;;;11.05;71.09;99386.34;1088018;47;1008;-79
2023/12/24 13:03:10;;;;;;;;;;;;;;;11.11;70.76;99389.38;1087879;47;1522;-79
2023/12/24 13:04:34;;;;;;;;;;;;;;;11.09;70.80;99386.88;1087826;47;1023;-80
2023/12/24 13:05:35;;;;;;;;;;;;;;;11.28;70.28;99396.41;1087655;54;1035;-80
2023/12/24 13:06:50;;;;;;;;;;;;;;;11.12;71.00;99399.91;1087651;54;1098;-80
2023/12/24 13:07:51;;;;;;;;;;;;;;;11.20;70.50;99396.41;1087760;46;1083;-80
2023/12/24 13:09:03;;;;;;;;;;;;;;;11.25;70.22;99380.69;1087746;54;1441;-80
2023/12/24 13:10:05;;;;;;;;;;;;;;;11.20;70.30;99388.38;1087248;47;1023;-80
2023/12/24 13:11:08;;;;;;;;;;;;;;;11.14;70.82;99389.88;1087643;54;1119;-80
2023/12/24 13:12:09;;;;;;;;;;;;;;;11.20;70.21;99389.22;1087322;47;1868;-80
2023/12/24 13:13:14;;;;;;;;;;;;;;;11.13;70.60;99395.41;1087466;54;1063;-80
2023/12/24 13:14:14;;;;;;;;;;;;;;;11.21;70.49;99384.72;1087445;54;1067;-80
2023/12/24 13:15:25;;;;;;;;;;;;;;;11.20;70.67;99389.22;1087399;54;1095;-79
2023/12/24 13:16:26;;;;;;;;;;;;;;;11.11;71.02;99384.84;1087339;54;1154;-79
2023/12/24 13:17:32;;;;;;;;;;;;;;;11.21;70.68;99384.72;1087754;54;1091;-80
2023/12/24 13:18:37;;;;;;;;;;;;;;;11.20;70.35;99383.84;1087881;54;1378;-80
2023/12/24 13:19:40;;;;;;;;;;;;;;;11.17;70.44;99378.00;1087901;47;1031;-80
2023/12/24 13:20:44;;;;;;;;;;;;;;;11.07;71.31;99379.00;1087844;54;888;-79
2023/12/24 13:21:44;;;;;;;;;;;;;;;11.04;70.96;99390.03;1087774;47;988;-80
2023/12/24 13:22:47;;;;;;;;;;;;;;;11.03;70.95;99380.34;1087846;54;1083;-79
2023/12/24 13:23:50;;;;;;;;;;;;;;;11.11;70.87;99371.47;1087664;47;1190;-80
2023/12/24 13:24:56;;;;;;;;;;;;;;;11.16;70.76;99376.31;1087887;54;1174;-80
2023/12/24 13:25:58;;;;;;;;;;;;;;;11.21;70.73;99368.66;1087752;47;975;-80
2023/12/24 13:27:04;;;;;;;;;;;;;;;11.29;70.23;99383.91;1087932;46;932;-80
2023/12/24 13:28:05;;;;;;;;;;;;;;;11.20;70.58;99380.34;1087935;54;985;-81
2023/12/24 13:29:05;;;;;;;;;;;;;;;11.31;70.40;99373.84;1087835;47;1215;-79
2023/12/24 13:30:10;;;;;;;;;;;;;;;11.12;70.94;99381.16;1087928;46;959;-80
2023/12/24 13:31:10;;;;;;;;;;;;;;;11.23;70.79;99377.38;1087820;54;1114;-81
2023/12/24 13:32:13;;;;;;;;;;;;;;;11.26;70.76;99389.56;1087544;54;1103;-80
2023/12/24 13:33:15;;;;;;;;;;;;;;;11.18;70.81;99390.38;1087804;46;1039;-81
2023/12/24 13:34:20;;;;;;;;;;;;;;;11.36;70.15;99380.38;1087768;54;979;-79
2023/12/24 13:35:25;;;;;;;;;;;;;;;11.39;70.33;99388.06;1087893;54;1084;-80
2023/12/24 13:36:29;;;;;;;;;;;;;;;11.36;69.86;99383.03;1087793;54;961;-80
2023/12/24 13:37:30;;;;;;;;;;;;;;;11.35;70.18;99388.56;1087487;47;1037;-81
2023/12/24 13:38:33;;;;;;;;;;;;;;;11.22;70.72;99383.72;1087573;54;1404;-79
2023/12/24 13:39:34;;;;;;;;;;;;;;;11.39;70.24;99396.09;1087812;47;971;-80
2023/12/24 13:40:35;;;;;;;;;;;;;;;11.45;70.11;99380.38;1087824;47;959;-80
2023/12/24 13:41:40;;;;;;;;;;;;;;;11.58;69.62;99386.06;1087853;54;1003;-80
2023/12/24 13:42:41;;;;;;;;;;;;;;;11.44;69.83;99389.41;1087749;54;1093;-80
2023/12/24 13:43:42;;;;;;;;;;;;;;;11.22;70.80;99387.22;1087849;54;995;-80
2023/12/24 13:44:45;;;;;;;;;;;;;;;11.33;70.32;99386.06;1087709;47;1038;-80
2023/12/24 13:45:52;;;;;;;;;;;;;;;11.12;71.21;99399.91;1087698;47;962;-80
2023/12/24 13:47:00;;;;;;;;;;;;;;;11.24;70.89;99393.25;1087851;54;1041;-80
2023/12/24 13:48:02;;;;;;;;;;;;;;;11.25;70.81;99391.38;1087803;54;992;-80
2023/12/24 13:49:07;;;;;;;;;;;;;;;11.44;70.27;99394.75;1087512;47;1161;-79
2023/12/24 13:50:08;;;;;;;;;;;;;;;11.58;69.45;99387.91;1087443;54;967;-80
2023/12/24 13:51:14;;;;;;;;;;;;;;;11.34;70.24;99393.06;1087825;54;978;-81
2023/12/24 13:52:14;;;;;;;;;;;;;;;11.32;70.08;99384.41;1087807;47;1003;-81
2023/12/24 13:53:18;;;;;;;;;;;;;;;11.30;70.71;99377.50;1087839;47;1834;-80
2023/12/24 13:54:18;;;;;;;;;;;;;;;11.38;70.49;99389.06;1087879;54;972;-81
2023/12/24 13:55:22;;;;;;;;;;;;;;;11.37;70.23;99390.06;1087775;54;959;-80
2023/12/24 13:56:23;;;;;;;;;;;;;;;11.37;69.96;99384.72;1087638;54;938;-81
2023/12/24 13:57:23;;;;;;;;;;;;;;;11.47;70.07;99389.06;1087770;46;1000;-80
2023/12/24 13:58:27;;;;;;;;;;;;;;;11.52;69.54;99390.25;1087804;47;1317;-81
2023/12/24 13:59:28;;;;;;;;;;;;;;;11.24;70.44;99379.88;1087407;54;1114;-81
2023/12/24 14:00:31;;;;;;;;;;;;;;;11.36;70.03;99385.72;1087772;47;990;-78
2023/12/24 14:01:32;;;;;;;;;;;;;;;11.44;70.02;99384.03;1087897;54;1027;-80
2023/12/24 14:02:35;;;;;;;;;;;;;;;11.32;70.31;99379.03;1087727;47;1169;-78
2023/12/24 14:03:36;;;;;;;;;;;;;;;11.37;70.33;99387.41;1087917;46;909;-80
2023/12/24 14:04:37;;;;;;;;;;;;;;;11.51;69.95;99391.25;1087790;47;927;-80
2023/12/24 14:05:41;;;;;;;;;;;;;;;11.52;69.78;99368.00;1087702;46;1052;-80
2023/12/24 14:06:44;;;;;;;;;;;;;;;11.36;70.17;99388.41;1087770;54;1040;-80
2023/12/24 14:07:47;;;;;;;;;;;;;;;11.50;69.92;99378.88;1087805;46;958;-80
2023/12/24 14:08:48;;;;;;;;;;;;;;;11.47;70.04;99373.00;1087740;54;1221;-80
2023/12/24 14:09:48;;;;;;;;;;;;;;;11.49;69.65;99381.72;1087716;46;1134;-79
2023/12/24 14:10:52;;;;;;;;;;;;;;;11.21;70.46;99384.72;1087777;54;1023;-80
2023/12/24 14:11:52;;;;;;;;;;;;;;;11.23;70.77;99388.06;1087728;54;1112;-80
2023/12/24 14:12:56;;;;;;;;;;;;;;;11.25;70.34;99391.38;1087693;47;1864;-80
2023/12/24 14:13:57;;;;;;;;;;;;;;;11.38;70.01;99396.28;1087818;54;1002;-80
2023/12/24 14:15:01;;;;;;;;;;;;;;;11.33;70.13;99399.44;1087823;54;983;-80
2023/12/24 14:16:05;;;;;;;;;;;;;;;11.27;70.71;99394.75;1087742;46;964;-80
2023/12/24 14:17:11;;;;;;;;;;;;;;;11.41;70.36;99397.78;1087765;47;993;-80
2023/12/24 14:18:11;;;;;;;;;;;;;;;11.41;70.33;99408.47;1087784;54;1087;-80
2023/12/24 14:19:14;;;;;;;;;;;;;;;11.38;70.22;99406.97;1087779;54;1314;-80
2023/12/24 14:20:16;;;;;;;;;;;;;;;11.31;70.35;99406.81;1087824;54;1050;-80
2023/12/24 14:21:20;;;;;;;;;;;;;;;11.27;70.35;99404.63;1087818;47;1000;-79
2023/12/24 14:22:24;;;;;;;;;;;;;;;11.24;70.55;99405.78;1087792;46;1079;-79
2023/12/24 14:23:28;;;;;;;;;;;;;;;11.42;70.34;99397.59;1087864;54;1099;-80
2023/12/24 14:24:28;;;;;;;;;;;;;;;11.46;69.89;99398.09;1087794;54;1182;-80
2023/12/24 14:25:29;;;;;;;;;;;;;;;11.42;70.24;99404.81;1087397;54;1136;-81
2023/12/24 14:26:33;;;;;;;;;;;;;;;11.32;70.23;99392.41;1087609;47;1016;-80
2023/12/24 14:27:33;;;;;;;;;;;;;;;11.43;69.99;99401.97;1087849;54;904;-81
2023/12/24 14:28:37;;;;;;;;;;;;;;;11.44;69.90;99400.09;1087770;47;1264;-80
2023/12/24 14:29:38;;;;;;;;;;;;;;;11.33;70.40;99393.25;1087899;54;946;-80
2023/12/24 14:30:38;;;;;;;;;;;;;;;11.32;70.25;99396.91;1087863;54;1104;-80
2023/12/24 14:31:42;;;;;;;;;;;;;;;11.40;70.34;99410.31;1087603;54;995;-80
2023/12/24 14:32:42;;;;;;;;;;;;;;;11.52;70.08;99405.50;1087834;54;1857;-80
2023/12/24 14:33:46;;;;;;;;;;;;;;;11.54;69.83;99398.09;1087672;46;1125;-80
2023/12/24 14:34:46;;;;;;;;;;;;;;;11.51;69.95;99404.63;1087776;54;1036;-80
2023/12/24 14:35:50;;;;;;;;;;;;;;;11.45;69.68;99394.59;1087909;54;919;-80
2023/12/24 14:36:51;;;;;;;;;;;;;;;11.39;69.85;99397.94;1087585;54;935;-80
2023/12/24 14:37:54;;;;;;;;;;;;;;;11.28;70.27;99393.75;1087769;54;1032;-79
2023/12/24 14:38:57;;;;;;;;;;;;;;;11.41;70.19;99393.25;1087925;54;1425;-80
2023/12/24 14:39:59;;;;;;;;;;;;;;;11.42;70.20;99397.59;1087922;54;979;-81
2023/12/24 14:41:03;;;;;;;;;;;;;;;11.56;69.78;99409.50;1087959;54;961;-80
2023/12/24 14:42:06;;;;;;;;;;;;;;;11.57;69.40;99397.78;1088082;54;925;-81
2023/12/24 14:43:07;;;;;;;;;;;;;;;11.50;69.58;99404.81;1088151;47;1006;-79
2023/12/24 14:44:10;;;;;;;;;;;;;;;11.53;69.88;99394.59;1088244;47;1020;-78
2023/12/24 14:45:11;;;;;;;;;;;;;;;11.47;69.80;99394.44;1087855;54;1386;-78
2023/12/24 14:46:15;;;;;;;;;;;;;;;11.37;70.73;99390.06;1087999;47;1067;-78
2023/12/24 14:47:18;;;;;;;;;;;;;;;11.49;70.65;99384.41;1088145;54;1020;-78
2023/12/24 14:48:21;;;;;;;;;;;;;;;11.30;71.10;99386.41;1087803;47;1000;-78
2023/12/24 14:49:22;;;;;;;;;;;;;;;11.19;71.64;99381.34;1087598;47;1248;-78
2023/12/24 14:50:25;;;;;;;;;;;;;;;11.39;71.25;99389.91;1087809;54;971;-78
2023/12/24 14:51:26;;;;;;;;;;;;;;;11.36;71.14;99380.38;1087654;54;1036;-78
2023/12/24 14:52:30;;;;;;;;;;;;;;;11.36;71.33;99377.69;1087586;54;1095;-79
2023/12/24 14:53:33;;;;;;;;;;;;;;;11.27;71.70;99384.03;1087461;46;1856;-79
2023/12/24 14:54:36;;;;;;;;;;;;;;;11.51;71.11;99385.91;1087568;54;1256;-78
2023/12/24 14:55:38;;;;;;;;;;;;;;;11.33;71.74;99380.72;1087392;47;969;-78
2023/12/24 14:56:38;;;;;;;;;;;;;;;11.30;72.09;99383.72;1087371;54;1494;-78
2023/12/24 14:57:41;;;;;;;;;;;;;;;11.17;72.61;99392.22;1087592;54;1003;-78
2023/12/24 14:58:42;;;;;;;;;;;;;;;11.22;73.07;99395.25;1087721;54;1316;-79
2023/12/24 14:59:46;;;;;;;;;;;;;;;11.04;73.83;99387.38;1086939;47;1448;-79
2023/12/24 15:00:49;;;;;;;;;;;;;;;10.96;74.64;99403.38;1087101;47;1023;-79
2023/12/24 15:01:50;;;;;;;;;;;;;;;10.86;75.96;99400.84;1087445;47;1213;-79
2023/12/24 15:02:53;;;;;;;;;;;;;;;10.80;76.63;99406.00;1087555;47;1386;-79
2023/12/24 15:03:54;;;;;;;;;;;;;;;10.90;76.45;99399.53;1087762;54;1007;-79
2023/12/24 15:04:59;;;;;;;;;;;;;;;10.80;77.19;99408.66;1087650;54;1223;-78
2023/12/24 15:06:00;;;;;;;;;;;;;;;10.68;77.61;99392.91;1087817;54;1006;-79
2023/12/24 15:07:04;;;;;;;;;;;;;;;10.60;78.31;99403.56;1087801;54;994;-78
2023/12/24 15:08:05;;;;;;;;;;;;;;;10.50;79.09;99410.88;1087752;54;983;-79
2023/12/24 15:09:12;;;;;;;;;;;;;;;10.54;79.14;99406.91;1087743;54;1232;-77
2023/12/24 15:10:13;;;;;;;;;;;;;;;10.59;79.21;99417.94;1087777;54;999;-78
2023/12/24 15:11:18;;;;;;;;;;;;;;;10.52;79.45;99414.25;1087755;54;1050;-78
2023/12/24 15:12:19;;;;;;;;;;;;;;;10.53;79.71;99415.91;1087759;54;969;-78
2023/12/24 15:13:22;;;;;;;;;;;;;;;10.58;79.34;99410.94;1087737;47;1868;-78
2023/12/24 15:14:23;;;;;;;;;;;;;;;10.62;78.93;99406.94;1087816;54;929;-78
2023/12/24 15:15:27;;;;;;;;;;;;;;;10.68;78.87;99406.28;1087672;47;910;-78
2023/12/24 15:16:27;;;;;;;;;;;;;;;10.57;79.47;99414.63;1087727;54;1043;-78
2023/12/24 15:17:31;;;;;;;;;;;;;;;10.60;79.27;99414.28;1087833;54;1044;-78
2023/12/24 15:18:32;;;;;;;;;;;;;;;10.44;79.76;99418.56;1087761;47;1326;-78
2023/12/24 15:19:38;;;;;;;;;;;;;;;10.51;79.68;99409.88;1087784;54;978;-80
2023/12/24 15:20:38;;;;;;;;;;;;;;;10.59;79.24;99408.09;1087415;47;942;-80
2023/12/24 15:21:41;;;;;;;;;;;;;;;10.63;79.15;99419.31;1087651;54;1175;-79
2023/12/24 15:22:42;;;;;;;;;;;;;;;10.65;78.66;99411.97;1087828;54;1051;-78
2023/12/24 15:23:45;;;;;;;;;;;;;;;10.65;78.68;99417.31;1087875;54;1064;-79
2023/12/24 15:24:49;;;;;;;;;;;;;;;10.69;78.78;99407.97;1087844;54;944;-79
2023/12/24 15:25:53;;;;;;;;;;;;;;;10.70;78.75;99420.34;1087783;54;1005;-79
2023/12/24 15:26:53;;;;;;;;;;;;;;;10.66;79.03;99424.34;1087771;54;922;-80
2023/12/24 15:27:56;;;;;;;;;;;;;;;10.45;79.90;99422.91;1087743;47;913;-78
2023/12/24 15:28:59;;;;;;;;;;;;;;;10.47;79.81;99430.75;1087745;54;1419;-79
2023/12/24 15:30:02;;;;;;;;;;;;;;;10.55;79.77;99422.78;1087703;54;1034;-79
2023/12/24 15:31:03;;;;;;;;;;;;;;;10.69;78.86;99426.66;1087677;54;909;-78
2023/12/24 15:32:08;;;;;;;;;;;;;;;10.76;78.53;99433.06;1087439;54;1506;-79
2023/12/24 15:33:09;;;;;;;;;;;;;;;10.69;79.10;99436.53;1087434;54;1907;-78
2023/12/24 15:34:09;;;;;;;;;;;;;;;10.80;78.86;99433.59;1087620;54;1101;-80
2023/12/24 15:35:16;;;;;;;;;;;;;;;10.74;78.77;99427.03;1087728;47;959;-79
2023/12/24 15:36:19;;;;;;;;;;;;;;;10.87;78.32;99433.75;1087687;47;973;-80
2023/12/24 15:37:26;;;;;;;;;;;;;;;10.89;78.29;99429.09;1087772;54;1012;-78
2023/12/24 15:38:27;;;;;;;;;;;;;;;10.67;78.78;99426.03;1087692;47;1452;-79
2023/12/24 15:39:27;;;;;;;;;;;;;;;10.76;78.39;99434.91;1087671;47;932;-79
2023/12/24 15:40:33;;;;;;;;;;;;;;;10.76;78.35;99430.41;1087642;47;927;-78
2023/12/24 15:41:34;;;;;;;;;;;;;;;10.80;78.06;99433.59;1087706;54;1090;-78
2023/12/24 15:42:35;;;;;;;;;;;;;;;10.82;77.76;99433.41;1087678;54;1103;-79
2023/12/24 15:43:41;;;;;;;;;;;;;;;10.88;77.50;99438.09;1087728;54;1366;-78
2023/12/24 15:44:42;;;;;;;;;;;;;;;10.76;77.64;99434.91;1087598;54;928;-78
2023/12/24 15:45:46;;;;;;;;;;;;;;;10.79;77.24;99439.94;1087501;46;967;-78
2023/12/24 15:46:46;;;;;;;;;;;;;;;10.81;77.01;99437.94;1087685;47;1066;-79
2023/12/24 15:47:50;;;;;;;;;;;;;;;10.86;76.31;99445.47;1087604;47;1074;-79
2023/12/24 15:48:53;;;;;;;;;;;;;;;10.87;76.37;99441.78;1087198;54;1288;-79
2023/12/24 15:50:00;;;;;;;;;;;;;;;11.00;76.03;99431.47;1087258;47;1031;-80
2023/12/24 15:51:01;;;;;;;;;;;;;;;10.88;75.63;99433.63;1087443;54;1489;-79
2023/12/24 15:52:05;;;;;;;;;;;;;;;10.92;75.53;99439.47;1087678;46;1090;-79
2023/12/24 15:53:06;;;;;;;;;;;;;;;10.95;75.45;99444.50;1087275;47;1877;-80
2023/12/24 15:54:09;;;;;;;;;;;;;;;10.89;75.42;99435.28;1087560;54;1090;-79
2023/12/24 15:55:10;;;;;;;;;;;;;;;10.96;75.23;99437.31;1087817;47;969;-77
2023/12/24 15:56:22;;;;;;;;;;;;;;;11.03;75.06;99438.31;1087681;47;1087;-79
2023/12/24 15:57:25;;;;;;;;;;;;;;;11.08;74.73;99436.00;1087820;54;1090;-79
2023/12/24 15:58:30;;;;;;;;;;;;;;;11.10;74.83;99435.84;1087740;47;1308;-79
2023/12/24 15:59:31;;;;;;;;;;;;;;;10.99;75.07;99416.41;1087849;47;936;-79
2023/12/24 16:00:34;;;;;;;;;;;;;;;11.04;74.52;99431.97;1087861;54;1126;-78
2023/12/24 16:01:40;;;;;;;;;;;;;;;11.07;74.36;99431.66;1087181;47;1214;-79
2023/12/24 16:02:44;;;;;;;;;;;;;;;11.10;74.39;99430.50;1087713;47;1051;-79
2023/12/24 16:03:44;;;;;;;;;;;;;;;11.20;73.97;99434.69;1087798;47;1201;-80
2023/12/24 16:04:48;;;;;;;;;;;;;;;11.31;73.41;99416.66;1087694;47;1088;-79
2023/12/24 16:05:49;;;;;;;;;;;;;;;11.18;73.88;99423.34;1087821;54;1114;-77
2023/12/24 16:06:53;;;;;;;;;;;;;;;11.13;74.13;99431.00;1087766;47;998;-78
2023/12/24 16:07:53;;;;;;;;;;;;;;;11.16;73.68;99429.81;1087647;54;1194;-78
2023/12/24 16:08:55;;;;;;;;;;;;;;;11.11;73.94;99429.50;1087771;54;1411;-78
2023/12/24 16:09:59;;;;;;;;;;;;;;;11.11;74.03;99426.81;1087827;46;991;-78
2023/12/24 16:11:00;;;;;;;;;;;;;;;11.17;73.45;99420.81;1087621;47;1029;-81
2023/12/24 16:12:07;;;;;;;;;;;;;;;11.20;73.46;99425.84;1087530;47;998;-79
2023/12/24 16:13:08;;;;;;;;;;;;;;;11.17;73.32;99418.13;1087382;47;1056;-80
2023/12/24 16:14:11;;;;;;;;;;;;;;;11.12;73.65;99428.50;1087654;47;1866;-79
2023/12/24 16:15:14;;;;;;;;;;;;;;;11.09;73.70;99424.31;1087689;47;924;-78
2023/12/24 16:16:18;;;;;;;;;;;;;;;11.12;73.73;99428.50;1087670;54;1031;-77
2023/12/24 16:17:18;;;;;;;;;;;;;;;11.30;72.98;99429.22;1087667;54;1086;-78
2023/12/24 16:18:22;;;;;;;;;;;;;;;11.19;73.22;99424.16;1087663;54;1143;-78
2023/12/24 16:19:25;;;;;;;;;;;;;;;11.27;73.23;99418.00;1087478;47;1325;-78
2023/12/24 16:20:28;;;;;;;;;;;;;;;11.36;72.56;99436.56;1087690;54;1111;-80
2023/12/24 16:21:29;;;;;;;;;;;;;;;11.13;72.74;99412.28;1087737;54;1048;-80
2023/12/24 16:22:32;;;;;;;;;;;;;;;11.10;73.25;99422.47;1087488;47;939;-79
2023/12/24 16:23:33;;;;;;;;;;;;;;;11.15;72.88;99417.44;1087522;47;1728;-78
2023/12/24 16:24:39;;;;;;;;;;;;;;;11.30;72.37;99414.97;1087639;47;1136;-79
2023/12/24 16:25:40;;;;;;;;;;;;;;;11.25;72.63;99407.44;1087605;47;1015;-77
2023/12/24 16:26:41;;;;;;;;;;;;;;;11.12;73.06;99412.44;1087727;47;993;-77
2023/12/24 16:27:47;;;;;;;;;;;;;;;11.31;72.47;99405.94;1087577;47;930;-78
2023/12/24 16:28:47;;;;;;;;;;;;;;;11.28;72.81;99406.31;1087572;54;1326;-78
2023/12/24 16:29:51;;;;;;;;;;;;;;;11.21;72.61;99392.75;1087198;54;1099;-79
2023/12/24 16:30:52;;;;;;;;;;;;;;;11.32;72.62;99410.31;1087255;54;1146;-79
2023/12/24 16:31:55;;;;;;;;;;;;;;;11.31;72.56;99413.97;1087152;54;1209;-79
2023/12/24 16:32:55;;;;;;;;;;;;;;;11.36;72.37;99417.84;1087031;47;1004;-79
2023/12/24 16:34:01;;;;;;;;;;;;;;;11.36;72.09;99408.97;1087444;54;1865;-79
2023/12/24 16:35:03;;;;;;;;;;;;;;;11.33;72.37;99414.66;1087561;54;1004;-79